Time;durP1;ratioP1;P1;durP2;ratioP2;P2;SDS_P1;SDS_P2;PMS_P1;PMS_P2;Temp;Humidity;BMP_temperature;BMP_pressure;BME280_temperature;BME280_humidity;BME280_pressure;Samples;Min_cycle;Max_cycle;Signal;HPM_P1;HPM_P2
2022/03/04 00:00:55;;;;;;;36.55;13.93;;;;;;;;;;5005996;28;20038;-74
2022/03/04 00:03:21;;;;;;;38.78;14.93;;;;;;;;;;5006061;28;20061;-74
2022/03/04 00:05:47;;;;;;;36.15;14.55;;;;;;;;;;5008018;28;20069;-74
2022/03/04 00:08:13;;;;;;;35.72;12.95;;;;;;;;;;5005796;28;20084;-73
2022/03/04 00:10:39;;;;;;;32.42;13.57;;;;;;;;;;4989953;28;20037;-73
2022/03/04 00:13:06;;;;;;;29.55;11.02;;;;;;;;;;5005821;28;20394;-74
2022/03/04 00:15:32;;;;;;;38.45;14.30;;;;;;;;;;5007395;28;20418;-74
2022/03/04 00:17:59;;;;;;;34.80;14.10;;;;;;;;;;5006974;28;20042;-74
2022/03/04 00:20:25;;;;;;;35.78;12.45;;;;;;;;;;5006460;28;20399;-73
2022/03/04 00:22:51;;;;;;;32.35;13.13;;;;;;;;;;5006089;28;20042;-74
2022/03/04 00:25:18;;;;;;;34.92;14.15;;;;;;;;;;5005466;28;20060;-73
2022/03/04 00:27:45;;;;;;;30.65;12.70;;;;;;;;;;5005816;28;20117;-74
2022/03/04 00:30:11;;;;;;;34.67;14.10;;;;;;;;;;5006720;28;20075;-73
2022/03/04 00:32:37;;;;;;;38.97;14.80;;;;;;;;;;4989492;28;20114;-74
2022/03/04 00:35:05;;;;;;;31.33;12.75;;;;;;;;;;5005712;28;20049;-74
2022/03/04 00:37:31;;;;;;;36.13;13.30;;;;;;;;;;5006921;28;20070;-75
2022/03/04 00:39:57;;;;;;;32.25;12.13;;;;;;;;;;5005541;28;20050;-74
2022/03/04 00:42:23;;;;;;;33.97;13.73;;;;;;;;;;5006246;28;20498;-75
2022/03/04 00:44:49;;;;;;;32.85;13.10;;;;;;;;;;5005919;28;20045;-73
2022/03/04 00:47:15;;;;;;;32.65;13.38;;;;;;;;;;5005573;28;20495;-73
2022/03/04 00:49:41;;;;;;;32.58;13.52;;;;;;;;;;5005593;28;20105;-74
2022/03/04 00:52:07;;;;;;;32.35;12.55;;;;;;;;;;5006575;28;20407;-74
2022/03/04 00:54:34;;;;;;;34.58;13.98;;;;;;;;;;5006008;28;20468;-73
2022/03/04 00:57:00;;;;;;;35.03;13.43;;;;;;;;;;5006580;28;20038;-74
2022/03/04 00:59:26;;;;;;;33.10;13.98;;;;;;;;;;5005728;28;20519;-74
2022/03/04 01:01:52;;;;;;;31.67;13.23;;;;;;;;;;5010064;28;20157;-74
2022/03/04 01:04:18;;;;;;;35.03;12.82;;;;;;;;;;5008386;28;20110;-74
2022/03/04 01:06:44;;;;;;;31.65;12.65;;;;;;;;;;5009115;28;20052;-73
2022/03/04 01:09:10;;;;;;;35.00;13.82;;;;;;;;;;5008332;28;20046;-74
2022/03/04 01:11:37;;;;;;;30.98;12.75;;;;;;;;;;5010437;28;20046;-74
2022/03/04 01:14:03;;;;;;;28.13;11.82;;;;;;;;;;5008705;28;20041;-75
2022/03/04 01:16:29;;;;;;;25.52;10.43;;;;;;;;;;5008751;28;20648;-74
2022/03/04 01:18:55;;;;;;;29.65;10.93;;;;;;;;;;5008794;28;20053;-74
2022/03/04 01:21:22;;;;;;;30.00;11.60;;;;;;;;;;5008450;28;20045;-74
2022/03/04 01:23:48;;;;;;;27.30;11.38;;;;;;;;;;5008912;28;20487;-74
2022/03/04 01:26:14;;;;;;;26.70;11.77;;;;;;;;;;5008697;28;20045;-74
2022/03/04 01:28:40;;;;;;;28.17;12.77;;;;;;;;;;5008386;28;20050;-74
2022/03/04 01:31:09;;;;;;;28.42;11.25;;;;;;;;;;5008138;28;20042;-74
2022/03/04 01:33:35;;;;;;;27.23;10.60;;;;;;;;;;5008517;28;20057;-74
2022/03/04 01:36:01;;;;;;;31.77;12.40;;;;;;;;;;5009673;28;20046;-74
2022/03/04 01:38:27;;;;;;;26.90;11.18;;;;;;;;;;5009692;28;20041;-74
2022/03/04 01:40:54;;;;;;;25.90;11.40;;;;;;;;;;5008763;28;20045;-75
2022/03/04 01:43:20;;;;;;;26.40;9.00;;;;;;;;;;5007941;28;20042;-73
2022/03/04 01:45:46;;;;;;;28.65;12.10;;;;;;;;;;5008471;28;20314;-74
2022/03/04 01:48:13;;;;;;;26.98;10.85;;;;;;;;;;5008468;28;20399;-74
2022/03/04 01:50:39;;;;;;;28.50;11.10;;;;;;;;;;5008329;28;20042;-74
2022/03/04 01:53:05;;;;;;;25.60;10.05;;;;;;;;;;5009342;28;20483;-75
2022/03/04 01:55:32;;;;;;;28.17;10.32;;;;;;;;;;5008845;28;20117;-74
2022/03/04 01:57:58;;;;;;;24.40;10.63;;;;;;;;;;5009899;28;20034;-74
2022/03/04 02:00:24;;;;;;;26.42;11.50;;;;;;;;;;5007727;28;20171;-75
2022/03/04 02:02:50;;;;;;;21.90;8.35;;;;;;;;;;5009492;28;20134;-75
2022/03/04 02:05:17;;;;;;;24.25;9.93;;;;;;;;;;5009265;28;20038;-75
2022/03/04 02:07:43;;;;;;;23.35;10.82;;;;;;;;;;4992075;28;20034;-74
2022/03/04 02:10:10;;;;;;;28.80;10.75;;;;;;;;;;5007677;28;20049;-74
2022/03/04 02:12:39;;;;;;;25.23;11.27;;;;;;;;;;5007215;28;20046;-74
2022/03/04 02:15:05;;;;;;;25.15;10.02;;;;;;;;;;5008069;28;20425;-74
2022/03/04 02:17:32;;;;;;;25.70;10.15;;;;;;;;;;5007892;28;20042;-74
2022/03/04 02:19:59;;;;;;;23.27;10.68;;;;;;;;;;5008252;28;20046;-75
2022/03/04 02:22:25;;;;;;;25.38;10.38;;;;;;;;;;5007606;28;20042;-74
2022/03/04 02:24:51;;;;;;;20.27;9.85;;;;;;;;;;5007900;28;20049;-74
2022/03/04 02:27:17;;;;;;;24.42;10.95;;;;;;;;;;5007559;28;20129;-74
2022/03/04 02:29:43;;;;;;;20.13;7.90;;;;;;;;;;5009246;28;20137;-75
2022/03/04 02:32:09;;;;;;;21.77;9.73;;;;;;;;;;5017313;28;20058;-74
2022/03/04 02:34:36;;;;;;;22.77;9.20;;;;;;;;;;5010743;28;20053;-74
2022/03/04 02:37:02;;;;;;;24.92;10.32;;;;;;;;;;5011159;28;20368;-75
2022/03/04 02:39:28;;;;;;;24.52;9.65;;;;;;;;;;5028615;28;20496;-75
2022/03/04 02:41:54;;;;;;;21.67;7.63;;;;;;;;;;5028769;28;20042;-73
2022/03/04 02:44:20;;;;;;;24.63;9.70;;;;;;;;;;5010642;28;20154;-73
2022/03/04 02:46:46;;;;;;;21.42;9.13;;;;;;;;;;5028357;28;20406;-74
2022/03/04 02:49:12;;;;;;;25.10;10.10;;;;;;;;;;4997269;28;20042;-75
2022/03/04 02:51:39;;;;;;;26.05;9.38;;;;;;;;;;5000016;28;20517;-73
2022/03/04 02:54:05;;;;;;;25.30;9.60;;;;;;;;;;5006821;28;20042;-74
2022/03/04 02:56:31;;;;;;;21.77;9.40;;;;;;;;;;5008540;28;20053;-74
2022/03/04 02:58:58;;;;;;;22.42;8.90;;;;;;;;;;5007132;28;20082;-75
2022/03/04 03:01:27;;;;;;;20.77;9.50;;;;;;;;;;5012124;28;20097;-74
2022/03/04 03:03:53;;;;;;;19.55;8.23;;;;;;;;;;5014084;28;20034;-74
2022/03/04 03:06:19;;;;;;;24.63;10.20;;;;;;;;;;5005726;28;20045;-74
2022/03/04 03:08:45;;;;;;;24.15;9.73;;;;;;;;;;4990872;28;20050;-74
2022/03/04 03:11:12;;;;;;;23.83;9.20;;;;;;;;;;5006908;28;20049;-73
2022/03/04 03:13:38;;;;;;;18.05;7.32;;;;;;;;;;5008002;28;20544;-73
2022/03/04 03:16:04;;;;;;;14.35;5.40;;;;;;;;;;4990229;28;20038;-74
2022/03/04 03:18:30;;;;;;;17.40;7.20;;;;;;;;;;5008156;28;20050;-73
2022/03/04 03:20:58;;;;;;;21.58;8.57;;;;;;;;;;4990840;28;20038;-74
2022/03/04 03:23:24;;;;;;;27.20;11.00;;;;;;;;;;5006864;28;20049;-74
2022/03/04 03:25:50;;;;;;;26.02;11.07;;;;;;;;;;5008296;28;20518;-74
2022/03/04 03:28:16;;;;;;;19.80;9.10;;;;;;;;;;5006616;28;20069;-74
2022/03/04 03:30:42;;;;;;;21.60;9.20;;;;;;;;;;4989890;28;20034;-74
2022/03/04 03:33:08;;;;;;;21.20;8.68;;;;;;;;;;5006187;28;20137;-74
2022/03/04 03:35:34;;;;;;;20.08;7.63;;;;;;;;;;5006921;28;20393;-73
2022/03/04 03:38:00;;;;;;;24.83;9.90;;;;;;;;;;5006815;28;20046;-74
2022/03/04 03:40:26;;;;;;;28.63;10.65;;;;;;;;;;5006102;28;20182;-74
2022/03/04 03:42:52;;;;;;;25.73;10.20;;;;;;;;;;5006721;28;20046;-75
2022/03/04 03:45:18;;;;;;;25.95;10.93;;;;;;;;;;5007506;28;20421;-74
2022/03/04 03:47:44;;;;;;;24.90;10.10;;;;;;;;;;5006233;28;20041;-74
2022/03/04 03:50:11;;;;;;;28.65;11.73;;;;;;;;;;5006619;28;20056;-74
2022/03/04 03:52:38;;;;;;;30.00;11.18;;;;;;;;;;4993512;28;20041;-75
2022/03/04 03:55:04;;;;;;;28.25;11.82;;;;;;;;;;5026975;28;20045;-74
2022/03/04 03:57:30;;;;;;;22.20;8.65;;;;;;;;;;5009720;28;20085;-74
2022/03/04 03:59:57;;;;;;;29.85;12.40;;;;;;;;;;5009454;28;20045;-74
2022/03/04 04:02:23;;;;;;;28.75;10.45;;;;;;;;;;5009200;28;20037;-74
2022/03/04 04:04:49;;;;;;;27.83;11.38;;;;;;;;;;5009448;28;20054;-73
2022/03/04 04:07:15;;;;;;;28.75;12.10;;;;;;;;;;4993018;28;20041;-73
2022/03/04 04:09:41;;;;;;;28.88;10.77;;;;;;;;;;5009777;28;20106;-74
2022/03/04 04:12:07;;;;;;;29.13;11.10;;;;;;;;;;5027182;28;20042;-74
2022/03/04 04:14:34;;;;;;;29.33;12.85;;;;;;;;;;5009443;28;20045;-74
2022/03/04 04:17:00;;;;;;;30.20;12.32;;;;;;;;;;5027281;28;20127;-74
2022/03/04 04:19:26;;;;;;;30.08;11.98;;;;;;;;;;5008834;28;20050;-74
2022/03/04 04:21:52;;;;;;;31.83;12.65;;;;;;;;;;5009177;28;20089;-73
2022/03/04 04:24:18;;;;;;;28.10;10.82;;;;;;;;;;5009170;28;20542;-74
2022/03/04 04:26:45;;;;;;;28.13;10.77;;;;;;;;;;5009203;28;20038;-73
2022/03/04 04:29:12;;;;;;;29.48;11.73;;;;;;;;;;5026646;28;20137;-74
2022/03/04 04:31:38;;;;;;;35.45;13.20;;;;;;;;;;5008753;28;20123;-74
2022/03/04 04:34:04;;;;;;;34.45;12.73;;;;;;;;;;4992982;28;20089;-74
2022/03/04 04:36:30;;;;;;;30.63;12.10;;;;;;;;;;5029995;28;20563;-74
2022/03/04 04:38:57;;;;;;;28.80;10.38;;;;;;;;;;5012572;28;20136;-73
2022/03/04 04:41:23;;;;;;;30.05;11.95;;;;;;;;;;5012336;28;20037;-74
2022/03/04 04:43:49;;;;;;;29.00;11.55;;;;;;;;;;5012937;28;20482;-74
2022/03/04 04:46:15;;;;;;;28.33;10.95;;;;;;;;;;5012413;28;20048;-74
2022/03/04 04:48:42;;;;;;;36.00;12.88;;;;;;;;;;5012285;28;20106;-74
2022/03/04 04:51:08;;;;;;;28.65;11.35;;;;;;;;;;5011951;28;20050;-73
2022/03/04 04:53:34;;;;;;;25.27;9.45;;;;;;;;;;5012722;28;20049;-73
2022/03/04 04:56:00;;;;;;;27.35;10.02;;;;;;;;;;4996357;28;20057;-73
2022/03/04 04:58:26;;;;;;;25.00;9.35;;;;;;;;;;5012077;28;20052;-73
2022/03/04 05:00:56;;;;;;;31.17;12.07;;;;;;;;;;5007293;28;20046;-73
2022/03/04 05:03:23;;;;;;;37.55;13.27;;;;;;;;;;5007928;28;20976;-73
2022/03/04 05:05:49;;;;;;;30.58;12.27;;;;;;;;;;5007808;28;20071;-73
2022/03/04 05:08:15;;;;;;;31.05;11.90;;;;;;;;;;5009905;28;20050;-74
2022/03/04 05:10:42;;;;;;;34.15;13.57;;;;;;;;;;5008691;28;20089;-74
2022/03/04 05:13:08;;;;;;;28.75;11.43;;;;;;;;;;5008577;28;20034;-73
2022/03/04 05:15:34;;;;;;;31.67;12.45;;;;;;;;;;5009695;28;20049;-71
2022/03/04 05:18:00;;;;;;;33.17;13.00;;;;;;;;;;5009955;28;20053;-73
2022/03/04 05:20:26;;;;;;;35.40;12.98;;;;;;;;;;5009557;28;20050;-74
2022/03/04 05:22:52;;;;;;;31.60;12.77;;;;;;;;;;5009264;28;20049;-74
2022/03/04 05:25:19;;;;;;;31.73;11.32;;;;;;;;;;5011246;28;20379;-73
2022/03/04 05:27:45;;;;;;;37.33;13.80;;;;;;;;;;5010465;28;20486;-76
2022/03/04 05:30:11;;;;;;;34.55;12.27;;;;;;;;;;5009071;28;20081;-74
2022/03/04 05:32:37;;;;;;;33.85;13.35;;;;;;;;;;5008626;28;20080;-74
2022/03/04 05:35:04;;;;;;;35.88;13.38;;;;;;;;;;4992283;28;20207;-74
2022/03/04 05:37:30;;;;;;;36.55;13.65;;;;;;;;;;4993273;28;20495;-75
2022/03/04 05:39:58;;;;;;;32.25;12.15;;;;;;;;;;4992808;28;20082;-76
2022/03/04 05:42:24;;;;;;;39.25;15.05;;;;;;;;;;5008380;28;20037;-76
2022/03/04 05:44:51;;;;;;;30.50;10.95;;;;;;;;;;5009297;28;20487;-74
2022/03/04 05:47:17;;;;;;;34.90;12.95;;;;;;;;;;5009754;28;20046;-74
2022/03/04 05:49:43;;;;;;;36.13;14.65;;;;;;;;;;4992196;28;20170;-75
2022/03/04 05:52:10;;;;;;;37.78;14.95;;;;;;;;;;4995631;28;20049;-75
2022/03/04 05:54:36;;;;;;;39.83;14.60;;;;;;;;;;5012151;28;20080;-74
2022/03/04 05:57:02;;;;;;;38.67;14.90;;;;;;;;;;5029243;28;20124;-74
2022/03/04 05:59:28;;;;;;;35.67;13.95;;;;;;;;;;5011931;28;20107;-74
2022/03/04 06:01:54;;;;;;;35.42;14.82;;;;;;;;;;4996381;28;20041;-75
2022/03/04 06:04:20;;;;;;;36.60;13.00;;;;;;;;;;5011651;28;20044;-75
2022/03/04 06:06:46;;;;;;;37.10;14.35;;;;;;;;;;5011264;28;20046;-74
2022/03/04 06:09:13;;;;;;;39.42;14.70;;;;;;;;;;5011442;28;20049;-73
2022/03/04 06:11:39;;;;;;;41.53;15.25;;;;;;;;;;5012245;28;20056;-74
2022/03/04 06:14:06;;;;;;;38.88;15.25;;;;;;;;;;5028738;28;20052;-74
2022/03/04 06:16:32;;;;;;;38.05;13.73;;;;;;;;;;4995238;28;20041;-75
2022/03/04 06:18:58;;;;;;;39.17;14.27;;;;;;;;;;5029258;28;20059;-75
2022/03/04 06:21:24;;;;;;;42.22;15.18;;;;;;;;;;5011881;28;20091;-74
2022/03/04 06:23:50;;;;;;;44.47;14.68;;;;;;;;;;5012007;28;20134;-75
2022/03/04 06:26:17;;;;;;;35.90;12.57;;;;;;;;;;5011259;28;20072;-76
2022/03/04 06:28:43;;;;;;;29.13;11.27;;;;;;;;;;4995296;28;20041;-76
2022/03/04 06:31:09;;;;;;;44.10;18.05;;;;;;;;;;5011321;28;20128;-76
2022/03/04 06:33:37;;;;;;;45.75;15.57;;;;;;;;;;4994805;28;20057;-77
2022/03/04 06:36:11;;;;;;;49.67;15.52;;;;;;;;;;5010890;28;20053;-76
2022/03/04 06:38:39;;;;;;;44.80;17.35;;;;;;;;;;5011557;28;20478;-77
2022/03/04 06:41:05;;;;;;;44.67;15.32;;;;;;;;;;4995187;28;20038;-76
2022/03/04 06:43:34;;;;;;;49.17;17.23;;;;;;;;;;5029145;28;20555;-76
2022/03/04 06:46:02;;;;;;;41.33;14.35;;;;;;;;;;5011693;28;20805;-76
2022/03/04 06:48:28;;;;;;;39.65;13.63;;;;;;;;;;5010890;28;20041;-75
2022/03/04 06:50:54;;;;;;;31.73;10.15;;;;;;;;;;5010462;28;20048;-75
2022/03/04 06:53:20;;;;;;;38.40;12.85;;;;;;;;;;4994304;28;20094;-75
2022/03/04 06:55:47;;;;;;;39.15;14.23;;;;;;;;;;5011770;28;20045;-76
2022/03/04 06:58:13;;;;;;;46.20;16.25;;;;;;;;;;5009993;28;20126;-75
2022/03/04 07:00:41;;;;;;;21.42;7.88;;;;;;;;;;5028755;28;20046;-75
2022/03/04 07:03:07;;;;;;;42.10;16.00;;;;;;;;;;5011276;28;20038;-76
2022/03/04 07:05:33;;;;;;;50.08;16.65;;;;;;;;;;5029176;28;20093;-76
2022/03/04 07:07:59;;;;;;;47.35;15.63;;;;;;;;;;5010679;28;20551;-76
2022/03/04 07:10:26;;;;;;;44.72;15.90;;;;;;;;;;4994083;28;20073;-75
2022/03/04 07:12:52;;;;;;;43.58;13.80;;;;;;;;;;4994387;28;20041;-76
2022/03/04 07:15:19;;;;;;;25.67;8.50;;;;;;;;;;5028166;28;20041;-76
2022/03/04 07:17:45;;;;;;;36.42;13.57;;;;;;;;;;5011600;28;20375;-75
2022/03/04 07:20:12;;;;;;;49.38;16.38;;;;;;;;;;5011983;28;20056;-76
2022/03/04 07:22:39;;;;;;;15.98;7.18;;;;;;;;;;4995394;28;20094;-77
2022/03/04 07:25:07;;;;;;;57.60;17.90;;;;;;;;;;5010745;28;20046;-76
2022/03/04 07:27:33;;;;;;;38.83;15.25;;;;;;;;;;5028985;28;20490;-76
2022/03/04 07:30:00;;;;;;;52.42;17.50;;;;;;;;;;5010566;28;20041;-76
2022/03/04 07:32:26;;;;;;;48.10;16.23;;;;;;;;;;5010597;28;20387;-76
2022/03/04 07:34:52;;;;;;;51.58;18.10;;;;;;;;;;5011327;28;20049;-75
2022/03/04 07:37:18;;;;;;;39.40;13.20;;;;;;;;;;5028392;28;20097;-75
2022/03/04 07:39:44;;;;;;;45.78;16.45;;;;;;;;;;5027845;28;20049;-76
2022/03/04 07:42:10;;;;;;;36.83;12.48;;;;;;;;;;5010587;28;20406;-76
2022/03/04 07:44:36;;;;;;;40.45;14.85;;;;;;;;;;5028207;28;20509;-76
2022/03/04 07:47:03;;;;;;;35.80;12.30;;;;;;;;;;5010145;28;20037;-76
2022/03/04 07:49:29;;;;;;;43.97;16.33;;;;;;;;;;5010591;28;20474;-76
2022/03/04 07:51:55;;;;;;;34.75;11.50;;;;;;;;;;5010552;28;20402;-76
2022/03/04 07:54:21;;;;;;;32.70;12.13;;;;;;;;;;4993549;28;20128;-76
2022/03/04 07:56:48;;;;;;;39.00;14.45;;;;;;;;;;5010515;28;20502;-76
2022/03/04 07:59:14;;;;;;;47.38;17.85;;;;;;;;;;5009695;28;20053;-76
2022/03/04 08:01:40;;;;;;;43.20;16.40;;;;;;;;;;5009827;28;20044;-77
2022/03/04 08:04:06;;;;;;;48.75;17.60;;;;;;;;;;5009032;28;20056;-76
2022/03/04 08:06:32;;;;;;;47.58;17.15;;;;;;;;;;5027952;28;20400;-76
2022/03/04 08:08:58;;;;;;;45.30;17.75;;;;;;;;;;5009905;28;20053;-76
2022/03/04 08:11:25;;;;;;;48.53;17.23;;;;;;;;;;5012685;28;20513;-75
2022/03/04 08:13:51;;;;;;;46.60;17.80;;;;;;;;;;5031273;28;20041;-76
2022/03/04 08:16:17;;;;;;;39.17;11.45;;;;;;;;;;5012518;28;20050;-76
2022/03/04 08:18:43;;;;;;;47.13;15.93;;;;;;;;;;5013189;28;20088;-76
2022/03/04 08:21:11;;;;;;;50.42;18.85;;;;;;;;;;5012844;28;20048;-77
2022/03/04 08:23:37;;;;;;;43.33;16.23;;;;;;;;;;5013010;28;20110;-77
2022/03/04 08:26:04;;;;;;;48.65;18.92;;;;;;;;;;5030559;28;20049;-76
2022/03/04 08:28:32;;;;;;;49.97;18.67;;;;;;;;;;5013061;28;20417;-76
2022/03/04 08:30:58;;;;;;;41.97;17.17;;;;;;;;;;5030782;28;20045;-76
2022/03/04 08:33:25;;;;;;;44.92;16.40;;;;;;;;;;5029970;28;20499;-75
2022/03/04 08:35:51;;;;;;;38.03;15.20;;;;;;;;;;5030569;28;20055;-77
2022/03/04 08:38:17;;;;;;;51.30;19.05;;;;;;;;;;5012158;28;20045;-77
2022/03/04 08:40:43;;;;;;;52.75;18.83;;;;;;;;;;5012736;28;20045;-76
2022/03/04 08:43:09;;;;;;;31.85;11.00;;;;;;;;;;5012734;28;20129;-76
2022/03/04 08:45:35;;;;;;;47.60;16.00;;;;;;;;;;5030716;28;20042;-76
2022/03/04 08:48:06;;;;;;;44.75;15.25;;;;;;;;;;4996499;28;20088;-76
2022/03/04 08:50:33;;;;;;;50.90;18.48;;;;;;;;;;5030525;28;20065;-76
2022/03/04 08:53:01;;;;;;;45.65;16.08;;;;;;;;;;5030386;28;20069;-77
2022/03/04 08:55:30;;;;;;;52.65;18.90;;;;;;;;;;5012595;28;20557;-75
2022/03/04 08:57:56;;;;;;;47.75;18.35;;;;;;;;;;5012765;28;20049;-75
2022/03/04 09:00:23;;;;;;;44.25;17.35;;;;;;;;;;4996164;28;20041;-75
2022/03/04 09:02:49;;;;;;;41.47;15.20;;;;;;;;;;5011883;28;20049;-75
2022/03/04 09:05:16;;;;;;;49.22;19.45;;;;;;;;;;5011781;28;20080;-75
2022/03/04 09:07:42;;;;;;;49.85;19.45;;;;;;;;;;5012611;28;20508;-75
2022/03/04 09:10:08;;;;;;;48.50;18.25;;;;;;;;;;5029456;28;20223;-75
2022/03/04 09:12:35;;;;;;;47.17;17.67;;;;;;;;;;5012120;28;20055;-75
2022/03/04 09:15:02;;;;;;;46.40;18.92;;;;;;;;;;5012318;28;20090;-76
2022/03/04 09:17:28;;;;;;;48.38;19.25;;;;;;;;;;5029675;28;20073;-75
2022/03/04 09:19:54;;;;;;;47.97;18.70;;;;;;;;;;5012225;28;20037;-75
2022/03/04 09:22:20;;;;;;;40.00;16.67;;;;;;;;;;5010923;28;20045;-75
2022/03/04 09:24:46;;;;;;;35.55;12.85;;;;;;;;;;5011978;28;20107;-74
2022/03/04 09:27:13;;;;;;;39.00;16.27;;;;;;;;;;5012096;28;20048;-75
2022/03/04 09:29:39;;;;;;;39.38;16.70;;;;;;;;;;5012521;28;20088;-76
2022/03/04 09:32:05;;;;;;;37.97;16.08;;;;;;;;;;5029460;28;20052;-76
2022/03/04 09:34:31;;;;;;;40.85;17.80;;;;;;;;;;5012167;28;20060;-76
2022/03/04 09:36:58;;;;;;;37.33;14.88;;;;;;;;;;5012263;28;20554;-75
2022/03/04 09:39:24;;;;;;;36.92;17.30;;;;;;;;;;5029329;28;20041;-75
2022/03/04 09:41:50;;;;;;;36.67;15.98;;;;;;;;;;5012919;28;20132;-76
2022/03/04 09:44:17;;;;;;;33.75;14.93;;;;;;;;;;4997053;28;20051;-75
2022/03/04 09:46:43;;;;;;;36.83;16.50;;;;;;;;;;5011781;28;20098;-75
2022/03/04 09:49:09;;;;;;;28.00;12.07;;;;;;;;;;5028669;28;20447;-75
2022/03/04 09:51:36;;;;;;;35.92;16.33;;;;;;;;;;5029303;28;20321;-75
2022/03/04 09:54:02;;;;;;;35.60;16.58;;;;;;;;;;5011191;28;20102;-75
2022/03/04 09:56:29;;;;;;;31.00;15.32;;;;;;;;;;4995182;28;20045;-74
2022/03/04 09:58:55;;;;;;;30.60;16.23;;;;;;;;;;5011796;28;20053;-74
2022/03/04 10:01:21;;;;;;;28.20;15.65;;;;;;;;;;5011619;28;20494;-74
2022/03/04 10:03:51;;;;;;;28.02;16.02;;;;;;;;;;5029184;28;20136;-76
2022/03/04 10:06:18;;;;;;;24.92;14.88;;;;;;;;;;5010959;28;20042;-74
2022/03/04 10:08:45;;;;;;;26.60;15.77;;;;;;;;;;5028916;28;20106;-74
2022/03/04 10:11:12;;;;;;;25.75;15.27;;;;;;;;;;5028671;28;20653;-74
2022/03/04 10:13:49;;;;;;;26.58;16.08;;;;;;;;;;5010985;28;20061;-74
2022/03/04 10:16:24;;;;;;;24.25;15.73;;;;;;;;;;5010740;28;20737;-73
2022/03/04 10:19:05;;;;;;;24.50;15.40;;;;;;;;;;5029124;28;20514;-73
2022/03/04 10:21:50;;;;;;;27.15;16.88;;;;;;;;;;5028981;28;20041;-73
2022/03/04 10:24:27;;;;;;;23.15;15.15;;;;;;;;;;5010444;28;20053;-73
2022/03/04 10:27:03;;;;;;;25.05;15.38;;;;;;;;;;5011493;28;20033;-74
2022/03/04 10:29:30;;;;;;;28.77;16.63;;;;;;;;;;5011016;28;20128;-74
2022/03/04 10:32:16;;;;;;;24.17;15.93;;;;;;;;;;5011320;28;20041;-73
2022/03/04 10:34:45;;;;;;;22.83;15.15;;;;;;;;;;5010366;28;20049;-75
2022/03/04 10:37:11;;;;;;;20.80;14.00;;;;;;;;;;5010781;28;20053;-75
2022/03/04 10:39:56;;;;;;;20.48;12.38;;;;;;;;;;4994728;28;20046;-75
2022/03/04 10:42:37;;;;;;;22.23;14.95;;;;;;;;;;5010529;28;20046;-74
2022/03/04 10:45:07;;;;;;;21.27;14.55;;;;;;;;;;5028519;28;20073;-74
2022/03/04 10:47:46;;;;;;;21.42;14.55;;;;;;;;;;5028690;28;20071;-75
2022/03/04 10:50:14;;;;;;;23.38;14.18;;;;;;;;;;5010342;28;20401;-74
2022/03/04 10:52:57;;;;;;;22.17;14.75;;;;;;;;;;5010689;28;20049;-74
2022/03/04 10:55:27;;;;;;;23.20;14.48;;;;;;;;;;5010645;28;20490;-74
2022/03/04 10:57:54;;;;;;;21.13;14.63;;;;;;;;;;5028760;28;20528;-74
2022/03/04 11:00:28;;;;;;;21.63;14.63;;;;;;;;;;4993683;28;20045;-74
2022/03/04 11:02:54;;;;;;;22.83;15.05;;;;;;;;;;5028370;28;20065;-74
2022/03/04 11:05:21;;;;;;;22.73;15.10;;;;;;;;;;5010350;28;20049;-73
2022/03/04 11:07:47;;;;;;;22.80;14.65;;;;;;;;;;5010787;28;20075;-73
2022/03/04 11:10:14;;;;;;;24.70;15.82;;;;;;;;;;5009920;28;20133;-73
2022/03/04 11:12:42;;;;;;;22.33;14.20;;;;;;;;;;5010578;28;20630;-73
2022/03/04 11:15:11;;;;;;;21.48;14.48;;;;;;;;;;5010216;28;20049;-73
2022/03/04 11:17:38;;;;;;;23.60;15.68;;;;;;;;;;5009940;28;20055;-74
2022/03/04 11:20:05;;;;;;;23.08;16.73;;;;;;;;;;5010402;28;20046;-73
2022/03/04 11:22:32;;;;;;;25.15;17.13;;;;;;;;;;5010243;28;20042;-74
2022/03/04 11:25:06;;;;;;;24.85;15.73;;;;;;;;;;5010208;28;20038;-74
2022/03/04 11:27:39;;;;;;;24.85;15.48;;;;;;;;;;5010274;28;20048;-73
2022/03/04 11:30:06;;;;;;;24.92;15.93;;;;;;;;;;5010120;28;20057;-72
2022/03/04 11:32:33;;;;;;;25.15;15.40;;;;;;;;;;5010372;28;20053;-72
2022/03/04 11:34:59;;;;;;;25.10;15.10;;;;;;;;;;5010137;28;20064;-73
2022/03/04 11:37:25;;;;;;;24.48;17.02;;;;;;;;;;5009813;28;20038;-73
2022/03/04 11:40:33;;;;;;;22.48;15.63;;;;;;;;;;5010237;28;20046;-73
2022/03/04 11:42:57;;;;;;;21.70;14.38;;;;;;;;;;5009836;28;20064;-73
2022/03/04 11:45:33;;;;;;;22.98;14.27;;;;;;;;;;5009370;28;20102;-72
2022/03/04 11:47:59;;;;;;;;;;;;;;;;;;5010385;28;20057;-73
2022/03/04 11:50:33;;;;;;;25.55;15.98;;;;;;;;;;5009385;28;20397;-73
2022/03/04 11:53:11;;;;;;;23.48;15.45;;;;;;;;;;5027579;28;20098;-73
2022/03/04 11:55:38;;;;;;;22.85;15.18;;;;;;;;;;5027589;28;20048;-73
2022/03/04 11:58:05;;;;;;;22.25;15.50;;;;;;;;;;5027315;28;20093;-72
2022/03/04 12:00:31;;;;;;;22.27;14.48;;;;;;;;;;5009481;28;20045;-72
2022/03/04 12:03:00;;;;;;;21.10;14.38;;;;;;;;;;5009673;28;20056;-72
2022/03/04 12:05:32;;;;;;;20.95;14.90;;;;;;;;;;5009231;28;20069;-72
2022/03/04 12:08:01;;;;;;;24.70;15.07;;;;;;;;;;5010290;28;20402;-71
2022/03/04 12:10:30;;;;;;;22.27;14.73;;;;;;;;;;5009171;28;20048;-73
2022/03/04 12:12:59;;;;;;;24.23;13.68;;;;;;;;;;4993390;28;20053;-73
2022/03/04 12:15:28;;;;;;;22.25;14.85;;;;;;;;;;5009503;28;20452;-73
2022/03/04 12:18:04;;;;;;;24.45;15.45;;;;;;;;;;4993450;28;20046;-73
2022/03/04 12:20:39;;;;;;;23.05;14.90;;;;;;;;;;5026691;28;20049;-73
2022/03/04 12:23:10;;;;;;;23.13;15.30;;;;;;;;;;5027373;28;20045;-73
2022/03/04 12:25:57;;;;;;;21.67;14.57;;;;;;;;;;5009084;28;20080;-73
2022/03/04 12:28:40;;;;;;;26.40;15.63;;;;;;;;;;5009391;28;20052;-76
2022/03/04 12:31:06;;;;;;;23.02;15.05;;;;;;;;;;5009474;28;20045;-73
2022/03/04 12:33:33;;;;;;;23.02;14.65;;;;;;;;;;5008890;28;20042;-72
2022/03/04 12:36:01;;;;;;;21.90;13.35;;;;;;;;;;5027110;28;20517;-74
2022/03/04 12:38:28;;;;;;;22.38;14.68;;;;;;;;;;4992922;28;20444;-72
2022/03/04 12:40:58;;;;;;;23.30;14.68;;;;;;;;;;5009199;28;20041;-73
2022/03/04 12:43:24;;;;;;;24.77;14.63;;;;;;;;;;5009002;28;20040;-72
2022/03/04 12:45:51;;;;;;;24.60;15.07;;;;;;;;;;5008665;28;20124;-74
2022/03/04 12:48:17;;;;;;;21.63;13.13;;;;;;;;;;5008795;28;20041;-73
2022/03/04 12:50:43;;;;;;;24.75;14.75;;;;;;;;;;5009200;28;20075;-73
2022/03/04 12:53:28;;;;;;;21.55;12.82;;;;;;;;;;5009144;28;20045;-74
2022/03/04 12:55:57;;;;;;;25.27;14.02;;;;;;;;;;5027305;28;20049;-73
2022/03/04 12:58:46;;;;;;;22.20;12.80;;;;;;;;;;5012282;28;20048;-72
2022/03/04 13:01:14;;;;;;;22.10;12.05;;;;;;;;;;5029953;28;20045;-75
2022/03/04 13:03:44;;;;;;;20.90;13.10;;;;;;;;;;5012240;28;20084;-73
2022/03/04 13:06:10;;;;;;;22.08;13.25;;;;;;;;;;4995703;28;20041;-73
2022/03/04 13:08:44;;;;;;;23.48;13.82;;;;;;;;;;5012190;28;20551;-72
2022/03/04 13:11:15;;;;;;;23.45;13.55;;;;;;;;;;5011637;28;20088;-73
2022/03/04 13:13:48;;;;;;;20.02;12.38;;;;;;;;;;5029752;28;20125;-73
2022/03/04 13:16:17;;;;;;;21.98;11.60;;;;;;;;;;5029540;28;20041;-74
2022/03/04 13:18:44;;;;;;;21.45;12.35;;;;;;;;;;5012028;28;20049;-74
2022/03/04 13:21:10;;;;;;;19.95;11.35;;;;;;;;;;5011990;28;20621;-73
2022/03/04 13:23:36;;;;;;;22.63;12.48;;;;;;;;;;5029369;28;20462;-72
2022/03/04 13:26:11;;;;;;;19.25;10.95;;;;;;;;;;5029440;28;20046;-72
2022/03/04 13:28:58;;;;;;;22.05;11.07;;;;;;;;;;5011589;28;20357;-72
2022/03/04 13:31:24;;;;;;;;;;;;;;;;;;5029637;28;20568;-72
2022/03/04 13:34:10;;;;;;;17.50;9.75;;;;;;;;;;5008563;28;19993;-72
2022/03/04 13:36:37;;;;;;;16.67;9.45;;;;;;;;;;5008060;28;20046;-72
2022/03/04 13:39:10;;;;;;;16.80;8.90;;;;;;;;;;5009765;28;20038;-72
2022/03/04 13:41:37;;;;;;;16.27;7.65;;;;;;;;;;5008377;28;20121;-72
2022/03/04 13:44:07;;;;;;;19.42;9.95;;;;;;;;;;4992162;28;20142;-72
2022/03/04 13:46:33;;;;;;;16.27;8.30;;;;;;;;;;4992021;28;20038;-71
2022/03/04 13:49:00;;;;;;;17.65;7.82;;;;;;;;;;4992406;28;20475;-72
2022/03/04 13:51:26;;;;;;;10.38;4.80;;;;;;;;;;4991773;28;20050;-72
2022/03/04 13:53:56;;;;;;;16.67;8.23;;;;;;;;;;5009800;28;20041;-74
2022/03/04 13:56:24;;;;;;;13.70;7.28;;;;;;;;;;5008026;28;20046;-74
2022/03/04 13:58:59;;;;;;;15.50;7.80;;;;;;;;;;5008641;28;20060;-74
2022/03/04 14:01:25;;;;;;;13.35;6.32;;;;;;;;;;5009275;28;20053;-73
2022/03/04 14:03:51;;;;;;;13.18;5.88;;;;;;;;;;5009940;28;20453;-74
2022/03/04 14:06:23;;;;;;;13.30;6.80;;;;;;;;;;5007957;28;20490;-74
2022/03/04 14:08:49;;;;;;;10.75;4.47;;;;;;;;;;5006903;28;20068;-74
2022/03/04 14:11:15;;;;;;;12.68;7.03;;;;;;;;;;5009305;28;20042;-74
2022/03/04 14:13:42;;;;;;;13.07;5.47;;;;;;;;;;5009759;28;20046;-74
2022/03/04 14:16:09;;;;;;;12.30;6.88;;;;;;;;;;5009155;28;20038;-73
2022/03/04 14:18:35;;;;;;;14.55;6.00;;;;;;;;;;5008068;28;20053;-73
2022/03/04 14:21:03;;;;;;;9.60;4.55;;;;;;;;;;5009211;28;20065;-73